sensor_id;sensor_type;location;lat;lon;timestamp;temperature;humidity
7498;DHT22;3790;48.806;9.140;2023-02-22T00:03:50;5.70;99.90
7498;DHT22;3790;48.806;9.140;2023-02-22T00:08:51;5.60;99.90
7498;DHT22;3790;48.806;9.140;2023-02-22T00:13:53;5.50;99.90
7498;DHT22;3790;48.806;9.140;2023-02-22T00:18:56;5.50;99.90
7498;DHT22;3790;48.806;9.140;2023-02-22T00:23:56;5.70;99.90
7498;DHT22;3790;48.806;9.140;2023-02-22T00:28:57;5.60;99.90
7498;DHT22;3790;48.806;9.140;2023-02-22T00:33:57;5.60;99.90
7498;DHT22;3790;48.806;9.140;2023-02-22T00:38:58;5.60;99.90
7498;DHT22;3790;48.806;9.140;2023-02-22T00:43:58;5.50;99.90
7498;DHT22;3790;48.806;9.140;2023-02-22T00:48:59;5.30;99.90
7498;DHT22;3790;48.806;9.140;2023-02-22T00:54:00;5.30;99.90
7498;DHT22;3790;48.806;9.140;2023-02-22T00:59:00;5.20;99.90
7498;DHT22;3790;48.806;9.140;2023-02-22T01:04:01;5.20;99.90
7498;DHT22;3790;48.806;9.140;2023-02-22T01:09:04;5.20;99.90
7498;DHT22;3790;48.806;9.140;2023-02-22T01:14:04;5.20;99.90
7498;DHT22;3790;48.806;9.140;2023-02-22T01:19:08;5.10;99.90
7498;DHT22;3790;48.806;9.140;2023-02-22T01:24:10;5.10;99.90
7498;DHT22;3790;48.806;9.140;2023-02-22T01:29:16;5.00;99.90
7498;DHT22;3790;48.806;9.140;2023-02-22T01:34:18;4.80;99.90
7498;DHT22;3790;48.806;9.140;2023-02-22T01:39:19;4.50;99.90
7498;DHT22;3790;48.806;9.140;2023-02-22T01:44:26;4.30;99.90
7498;DHT22;3790;48.806;9.140;2023-02-22T01:49:36;4.30;99.90
7498;DHT22;3790;48.806;9.140;2023-02-22T01:54:44;4.20;99.90
7498;DHT22;3790;48.806;9.140;2023-02-22T01:59:49;4.10;99.90
7498;DHT22;3790;48.806;9.140;2023-02-22T02:04:51;4.10;99.90
7498;DHT22;3790;48.806;9.140;2023-02-22T02:10:01;4.20;99.90
7498;DHT22;3790;48.806;9.140;2023-02-22T02:15:31;4.30;99.90
7498;DHT22;3790;48.806;9.140;2023-02-22T02:20:57;4.20;99.90
7498;DHT22;3790;48.806;9.140;2023-02-22T02:26:23;4.10;99.90
7498;DHT22;3790;48.806;9.140;2023-02-22T02:42:12;4.40;99.90
7498;DHT22;3790;48.806;9.140;2023-02-22T02:47:25;4.30;99.90
7498;DHT22;3790;48.806;9.140;2023-02-22T02:52:27;4.30;99.90
7498;DHT22;3790;48.806;9.140;2023-02-22T02:57:28;4.30;99.90
7498;DHT22;3790;48.806;9.140;2023-02-22T03:02:57;4.20;99.90
7498;DHT22;3790;48.806;9.140;2023-02-22T03:18:24;4.00;99.90
7498;DHT22;3790;48.806;9.140;2023-02-22T03:23:36;4.00;99.90
7498;DHT22;3790;48.806;9.140;2023-02-22T03:28:43;3.90;99.90
7498;DHT22;3790;48.806;9.140;2023-02-22T03:33:51;3.80;99.90
7498;DHT22;3790;48.806;9.140;2023-02-22T03:44:00;3.70;99.90
7498;DHT22;3790;48.806;9.140;2023-02-22T03:49:08;3.60;99.90
7498;DHT22;3790;48.806;9.140;2023-02-22T03:54:10;3.60;99.90
7498;DHT22;3790;48.806;9.140;2023-02-22T03:59:16;3.60;99.90
7498;DHT22;3790;48.806;9.140;2023-02-22T04:04:17;3.50;99.90
7498;DHT22;3790;48.806;9.140;2023-02-22T04:09:18;3.50;99.90
7498;DHT22;3790;48.806;9.140;2023-02-22T04:14:19;3.40;99.90
7498;DHT22;3790;48.806;9.140;2023-02-22T04:19:19;3.40;99.90
7498;DHT22;3790;48.806;9.140;2023-02-22T04:24:20;3.40;99.90
7498;DHT22;3790;48.806;9.140;2023-02-22T04:29:21;3.40;99.90
7498;DHT22;3790;48.806;9.140;2023-02-22T04:34:21;3.40;99.90
7498;DHT22;3790;48.806;9.140;2023-02-22T04:39:22;3.40;99.90
7498;DHT22;3790;48.806;9.140;2023-02-22T04:44:22;3.60;99.90
7498;DHT22;3790;48.806;9.140;2023-02-22T04:49:23;3.60;99.90
7498;DHT22;3790;48.806;9.140;2023-02-22T04:54:23;3.60;99.90
7498;DHT22;3790;48.806;9.140;2023-02-22T04:59:24;3.60;99.90
7498;DHT22;3790;48.806;9.140;2023-02-22T05:04:24;3.60;99.90
7498;DHT22;3790;48.806;9.140;2023-02-22T05:09:25;3.60;99.90
7498;DHT22;3790;48.806;9.140;2023-02-22T05:14:25;3.50;99.90
7498;DHT22;3790;48.806;9.140;2023-02-22T05:19:26;3.50;99.90
7498;DHT22;3790;48.806;9.140;2023-02-22T05:24:27;3.50;99.90
7498;DHT22;3790;48.806;9.140;2023-02-22T05:29:28;3.40;99.90
7498;DHT22;3790;48.806;9.140;2023-02-22T05:34:28;3.20;99.90
7498;DHT22;3790;48.806;9.140;2023-02-22T05:39:30;3.20;99.90
7498;DHT22;3790;48.806;9.140;2023-02-22T05:44:30;3.20;99.90
7498;DHT22;3790;48.806;9.140;2023-02-22T05:49:31;3.30;99.90
7498;DHT22;3790;48.806;9.140;2023-02-22T05:54:31;3.20;99.90
7498;DHT22;3790;48.806;9.140;2023-02-22T05:59:32;3.20;99.90
7498;DHT22;3790;48.806;9.140;2023-02-22T06:04:32;3.30;99.90
7498;DHT22;3790;48.806;9.140;2023-02-22T06:09:33;3.30;99.90
7498;DHT22;3790;48.806;9.140;2023-02-22T06:14:34;3.20;99.90
7498;DHT22;3790;48.806;9.140;2023-02-22T06:19:34;3.30;99.90
7498;DHT22;3790;48.806;9.140;2023-02-22T06:24:37;3.30;99.90
7498;DHT22;3790;48.806;9.140;2023-02-22T06:29:38;3.30;99.90
7498;DHT22;3790;48.806;9.140;2023-02-22T06:34:39;3.30;99.90
7498;DHT22;3790;48.806;9.140;2023-02-22T06:39:42;3.50;99.90
7498;DHT22;3790;48.806;9.140;2023-02-22T06:44:43;3.60;99.90
7498;DHT22;3790;48.806;9.140;2023-02-22T06:49:43;3.90;99.90
7498;DHT22;3790;48.806;9.140;2023-02-22T06:54:44;4.00;99.90
7498;DHT22;3790;48.806;9.140;2023-02-22T06:59:44;4.10;99.90
7498;DHT22;3790;48.806;9.140;2023-02-22T07:04:45;4.30;99.90
7498;DHT22;3790;48.806;9.140;2023-02-22T07:09:46;4.50;99.90
7498;DHT22;3790;48.806;9.140;2023-02-22T07:14:47;4.60;99.90
7498;DHT22;3790;48.806;9.140;2023-02-22T07:19:47;4.70;99.90
7498;DHT22;3790;48.806;9.140;2023-02-22T07:24:48;4.80;99.90
7498;DHT22;3790;48.806;9.140;2023-02-22T07:29:48;4.90;99.90
7498;DHT22;3790;48.806;9.140;2023-02-22T07:34:49;5.10;99.90
7498;DHT22;3790;48.806;9.140;2023-02-22T07:39:49;5.20;99.90
7498;DHT22;3790;48.806;9.140;2023-02-22T07:44:50;5.30;99.90
7498;DHT22;3790;48.806;9.140;2023-02-22T07:49:50;5.50;99.90
7498;DHT22;3790;48.806;9.140;2023-02-22T07:54:51;5.80;99.90
7498;DHT22;3790;48.806;9.140;2023-02-22T07:59:51;6.10;99.90
7498;DHT22;3790;48.806;9.140;2023-02-22T08:04:52;6.40;99.90
7498;DHT22;3790;48.806;9.140;2023-02-22T08:09:52;6.50;99.90
7498;DHT22;3790;48.806;9.140;2023-02-22T08:14:53;6.80;99.90
7498;DHT22;3790;48.806;9.140;2023-02-22T08:19:53;6.90;99.90
7498;DHT22;3790;48.806;9.140;2023-02-22T08:24:54;7.20;99.90
7498;DHT22;3790;48.806;9.140;2023-02-22T08:29:55;7.70;99.90
7498;DHT22;3790;48.806;9.140;2023-02-22T08:34:55;8.20;99.90
7498;DHT22;3790;48.806;9.140;2023-02-22T08:39:56;8.50;99.90
7498;DHT22;3790;48.806;9.140;2023-02-22T08:44:56;8.70;99.90
7498;DHT22;3790;48.806;9.140;2023-02-22T08:49:57;8.90;99.90
7498;DHT22;3790;48.806;9.140;2023-02-22T08:54:57;9.10;99.90
7498;DHT22;3790;48.806;9.140;2023-02-22T08:59:58;9.10;99.90
7498;DHT22;3790;48.806;9.140;2023-02-22T09:05:01;9.30;99.90
7498;DHT22;3790;48.806;9.140;2023-02-22T09:10:02;9.50;99.90
7498;DHT22;3790;48.806;9.140;2023-02-22T09:15:02;9.50;99.90
7498;DHT22;3790;48.806;9.140;2023-02-22T09:20:05;9.60;99.90
7498;DHT22;3790;48.806;9.140;2023-02-22T09:25:06;9.70;99.90
7498;DHT22;3790;48.806;9.140;2023-02-22T09:30:07;9.60;99.90
7498;DHT22;3790;48.806;9.140;2023-02-22T09:35:11;9.60;99.90
7498;DHT22;3790;48.806;9.140;2023-02-22T09:40:17;9.70;99.90
7498;DHT22;3790;48.806;9.140;2023-02-22T09:45:31;10.40;99.90
7498;DHT22;3790;48.806;9.140;2023-02-22T09:50:39;10.70;99.90
7498;DHT22;3790;48.806;9.140;2023-02-22T09:55:45;11.20;99.90
7498;DHT22;3790;48.806;9.140;2023-02-22T10:00:50;11.80;99.90
7498;DHT22;3790;48.806;9.140;2023-02-22T10:06:01;12.00;99.90
7498;DHT22;3790;48.806;9.140;2023-02-22T10:21:38;12.50;99.90
7498;DHT22;3790;48.806;9.140;2023-02-22T10:26:43;12.70;99.90
7498;DHT22;3790;48.806;9.140;2023-02-22T10:31:46;13.10;99.90
7498;DHT22;3790;48.806;9.140;2023-02-22T10:36:50;13.30;99.90
7498;DHT22;3790;48.806;9.140;2023-02-22T10:41:56;13.60;99.90
7498;DHT22;3790;48.806;9.140;2023-02-22T10:46:59;13.90;99.90
7498;DHT22;3790;48.806;9.140;2023-02-22T10:52:02;14.10;99.90
7498;DHT22;3790;48.806;9.140;2023-02-22T10:57:03;14.30;99.90
7498;DHT22;3790;48.806;9.140;2023-02-22T11:02:29;14.40;99.90
7498;DHT22;3790;48.806;9.140;2023-02-22T11:07:33;14.30;99.90
7498;DHT22;3790;48.806;9.140;2023-02-22T11:12:36;14.40;99.90
7498;DHT22;3790;48.806;9.140;2023-02-22T11:17:38;14.50;99.90
7498;DHT22;3790;48.806;9.140;2023-02-22T11:22:41;14.50;99.90
7498;DHT22;3790;48.806;9.140;2023-02-22T11:27:43;14.20;99.90
7498;DHT22;3790;48.806;9.140;2023-02-22T11:32:57;14.10;99.90
7498;DHT22;3790;48.806;9.140;2023-02-22T11:38:16;14.40;99.90
7498;DHT22;3790;48.806;9.140;2023-02-22T11:43:18;14.60;99.90
7498;DHT22;3790;48.806;9.140;2023-02-22T11:48:22;14.40;99.90
7498;DHT22;3790;48.806;9.140;2023-02-22T12:14:22;15.80;99.90
7498;DHT22;3790;48.806;9.140;2023-02-22T12:19:37;15.70;99.90
7498;DHT22;3790;48.806;9.140;2023-02-22T12:24:43;15.60;99.90
7498;DHT22;3790;48.806;9.140;2023-02-22T12:29:48;16.10;99.90
7498;DHT22;3790;48.806;9.140;2023-02-22T12:35:19;18.40;99.90
7498;DHT22;3790;48.806;9.140;2023-02-22T12:40:23;18.40;99.90
7498;DHT22;3790;48.806;9.140;2023-02-22T12:45:44;17.40;99.90
7498;DHT22;3790;48.806;9.140;2023-02-22T12:50:46;16.70;99.90
7498;DHT22;3790;48.806;9.140;2023-02-22T12:56:21;16.30;99.90
7498;DHT22;3790;48.806;9.140;2023-02-22T13:01:27;17.10;99.90
7498;DHT22;3790;48.806;9.140;2023-02-22T13:27:34;16.40;99.90
7498;DHT22;3790;48.806;9.140;2023-02-22T13:54:15;15.50;99.90
7498;DHT22;3790;48.806;9.140;2023-02-22T13:59:28;15.70;99.90
7498;DHT22;3790;48.806;9.140;2023-02-22T14:25:39;15.30;99.90
7498;DHT22;3790;48.806;9.140;2023-02-22T14:30:41;15.70;99.90
7498;DHT22;3790;48.806;9.140;2023-02-22T14:35:42;16.10;99.90
7498;DHT22;3790;48.806;9.140;2023-02-22T14:40:44;15.90;99.90
7498;DHT22;3790;48.806;9.140;2023-02-22T14:45:51;15.80;99.90
7498;DHT22;3790;48.806;9.140;2023-02-22T14:50:53;15.80;99.90
7498;DHT22;3790;48.806;9.140;2023-02-22T14:56:07;16.00;99.90
7498;DHT22;3790;48.806;9.140;2023-02-22T15:01:30;15.90;99.90
7498;DHT22;3790;48.806;9.140;2023-02-22T15:06:33;15.50;99.90
7498;DHT22;3790;48.806;9.140;2023-02-22T15:11:34;15.40;99.90
7498;DHT22;3790;48.806;9.140;2023-02-22T15:16:36;15.30;99.90
7498;DHT22;3790;48.806;9.140;2023-02-22T15:21:44;15.20;99.90
7498;DHT22;3790;48.806;9.140;2023-02-22T15:26:45;15.00;99.90
7498;DHT22;3790;48.806;9.140;2023-02-22T15:31:46;15.00;99.90
7498;DHT22;3790;48.806;9.140;2023-02-22T15:36:48;15.10;99.90
7498;DHT22;3790;48.806;9.140;2023-02-22T15:42:07;15.10;99.90
7498;DHT22;3790;48.806;9.140;2023-02-22T15:47:23;15.30;99.90
7498;DHT22;3790;48.806;9.140;2023-02-22T15:52:25;15.00;99.90
7498;DHT22;3790;48.806;9.140;2023-02-22T15:57:26;14.70;99.90
7498;DHT22;3790;48.806;9.140;2023-02-22T16:02:38;14.40;99.90
7498;DHT22;3790;48.806;9.140;2023-02-22T16:07:50;14.00;99.90
7498;DHT22;3790;48.806;9.140;2023-02-22T16:13:23;13.80;99.90
7498;DHT22;3790;48.806;9.140;2023-02-22T16:18:33;13.70;99.90
7498;DHT22;3790;48.806;9.140;2023-02-22T16:23:43;13.50;99.90
7498;DHT22;3790;48.806;9.140;2023-02-22T16:33:52;13.20;99.90
7498;DHT22;3790;48.806;9.140;2023-02-22T16:38:53;13.00;99.90
7498;DHT22;3790;48.806;9.140;2023-02-22T16:43:53;12.70;99.90
7498;DHT22;3790;48.806;9.140;2023-02-22T16:48:56;12.40;99.90
7498;DHT22;3790;48.806;9.140;2023-02-22T16:54:02;12.20;99.90
7498;DHT22;3790;48.806;9.140;2023-02-22T16:59:08;11.90;99.90
7498;DHT22;3790;48.806;9.140;2023-02-22T17:04:18;11.80;99.90
7498;DHT22;3790;48.806;9.140;2023-02-22T17:09:19;11.70;99.90
7498;DHT22;3790;48.806;9.140;2023-02-22T17:14:22;11.50;99.90
7498;DHT22;3790;48.806;9.140;2023-02-22T17:19:23;11.30;99.90
7498;DHT22;3790;48.806;9.140;2023-02-22T17:24:24;11.10;99.90
7498;DHT22;3790;48.806;9.140;2023-02-22T17:29:28;10.90;99.90
7498;DHT22;3790;48.806;9.140;2023-02-22T17:34:29;10.70;99.90
7498;DHT22;3790;48.806;9.140;2023-02-22T17:39:29;10.60;99.90
7498;DHT22;3790;48.806;9.140;2023-02-22T17:44:30;10.50;99.90
7498;DHT22;3790;48.806;9.140;2023-02-22T17:49:31;10.60;99.90
7498;DHT22;3790;48.806;9.140;2023-02-22T17:54:31;10.50;99.90
7498;DHT22;3790;48.806;9.140;2023-02-22T17:59:33;10.40;99.90
7498;DHT22;3790;48.806;9.140;2023-02-22T18:04:34;10.40;99.90
7498;DHT22;3790;48.806;9.140;2023-02-22T18:09:36;10.50;99.90
7498;DHT22;3790;48.806;9.140;2023-02-22T18:14:36;10.50;99.90
7498;DHT22;3790;48.806;9.140;2023-02-22T18:19:37;10.60;99.90
7498;DHT22;3790;48.806;9.140;2023-02-22T18:24:37;10.60;99.90
7498;DHT22;3790;48.806;9.140;2023-02-22T18:29:38;10.60;99.90
7498;DHT22;3790;48.806;9.140;2023-02-22T18:34:39;10.40;99.90
7498;DHT22;3790;48.806;9.140;2023-02-22T18:39:39;10.30;99.90
7498;DHT22;3790;48.806;9.140;2023-02-22T18:44:42;10.20;99.90
7498;DHT22;3790;48.806;9.140;2023-02-22T18:49:42;10.20;99.90
7498;DHT22;3790;48.806;9.140;2023-02-22T18:54:43;10.10;99.90
7498;DHT22;3790;48.806;9.140;2023-02-22T18:59:43;10.00;99.90
7498;DHT22;3790;48.806;9.140;2023-02-22T19:04:44;10.20;99.90
7498;DHT22;3790;48.806;9.140;2023-02-22T19:09:45;10.30;99.90
7498;DHT22;3790;48.806;9.140;2023-02-22T19:14:51;10.40;99.90
7498;DHT22;3790;48.806;9.140;2023-02-22T19:19:51;10.50;99.90
7498;DHT22;3790;48.806;9.140;2023-02-22T19:24:52;10.50;99.90
7498;DHT22;3790;48.806;9.140;2023-02-22T19:29:53;10.50;99.90
7498;DHT22;3790;48.806;9.140;2023-02-22T19:34:54;10.60;99.90
7498;DHT22;3790;48.806;9.140;2023-02-22T19:40:03;10.50;99.90
7498;DHT22;3790;48.806;9.140;2023-02-22T19:45:06;10.50;99.90
7498;DHT22;3790;48.806;9.140;2023-02-22T19:50:07;10.50;99.90
7498;DHT22;3790;48.806;9.140;2023-02-22T19:55:08;10.50;99.90
7498;DHT22;3790;48.806;9.140;2023-02-22T20:00:13;10.50;99.90
7498;DHT22;3790;48.806;9.140;2023-02-22T20:05:22;10.70;99.90
7498;DHT22;3790;48.806;9.140;2023-02-22T20:10:23;10.70;99.90
7498;DHT22;3790;48.806;9.140;2023-02-22T20:15:23;10.60;99.90
7498;DHT22;3790;48.806;9.140;2023-02-22T20:20:24;10.40;99.90
7498;DHT22;3790;48.806;9.140;2023-02-22T20:25:25;10.40;99.90
7498;DHT22;3790;48.806;9.140;2023-02-22T20:30:26;10.30;99.90
7498;DHT22;3790;48.806;9.140;2023-02-22T20:35:26;10.20;99.90
7498;DHT22;3790;48.806;9.140;2023-02-22T20:40:27;10.10;99.90
7498;DHT22;3790;48.806;9.140;2023-02-22T20:45:28;10.00;99.90
7498;DHT22;3790;48.806;9.140;2023-02-22T20:50:28;9.80;99.90
7498;DHT22;3790;48.806;9.140;2023-02-22T20:55:29;9.70;99.90
7498;DHT22;3790;48.806;9.140;2023-02-22T21:00:30;9.70;99.90
7498;DHT22;3790;48.806;9.140;2023-02-22T21:05:30;9.60;99.90
7498;DHT22;3790;48.806;9.140;2023-02-22T21:10:39;9.40;99.90
7498;DHT22;3790;48.806;9.140;2023-02-22T21:15:41;9.20;99.90
7498;DHT22;3790;48.806;9.140;2023-02-22T21:20:47;9.10;99.90
7498;DHT22;3790;48.806;9.140;2023-02-22T21:25:51;9.00;99.90
7498;DHT22;3790;48.806;9.140;2023-02-22T21:30:52;8.80;99.90
7498;DHT22;3790;48.806;9.140;2023-02-22T21:35:52;8.60;99.90
7498;DHT22;3790;48.806;9.140;2023-02-22T21:40:53;8.70;99.90
7498;DHT22;3790;48.806;9.140;2023-02-22T21:46:01;8.80;99.90
7498;DHT22;3790;48.806;9.140;2023-02-22T21:51:23;8.70;99.90
7498;DHT22;3790;48.806;9.140;2023-02-22T21:56:24;8.50;99.90
7498;DHT22;3790;48.806;9.140;2023-02-22T22:01:30;8.40;99.90
7498;DHT22;3790;48.806;9.140;2023-02-22T22:06:32;8.30;99.90
7498;DHT22;3790;48.806;9.140;2023-02-22T22:11:34;8.30;99.90
7498;DHT22;3790;48.806;9.140;2023-02-22T22:16:35;8.30;99.90
7498;DHT22;3790;48.806;9.140;2023-02-22T22:21:36;8.20;99.90
7498;DHT22;3790;48.806;9.140;2023-02-22T22:26:37;8.10;99.90
7498;DHT22;3790;48.806;9.140;2023-02-22T22:31:37;8.00;99.90
7498;DHT22;3790;48.806;9.140;2023-02-22T22:36:38;8.00;99.90
7498;DHT22;3790;48.806;9.140;2023-02-22T22:41:40;8.00;99.90
7498;DHT22;3790;48.806;9.140;2023-02-22T22:46:41;8.10;99.90
7498;DHT22;3790;48.806;9.140;2023-02-22T22:51:42;8.20;99.90
7498;DHT22;3790;48.806;9.140;2023-02-22T22:56:46;8.40;99.90
7498;DHT22;3790;48.806;9.140;2023-02-22T23:01:47;8.60;99.90
7498;DHT22;3790;48.806;9.140;2023-02-22T23:06:49;8.70;99.90
7498;DHT22;3790;48.806;9.140;2023-02-22T23:11:52;8.70;99.90
7498;DHT22;3790;48.806;9.140;2023-02-22T23:16:53;8.80;99.90
7498;DHT22;3790;48.806;9.140;2023-02-22T23:22:04;8.90;99.90
7498;DHT22;3790;48.806;9.140;2023-02-22T23:27:06;9.10;99.90
7498;DHT22;3790;48.806;9.140;2023-02-22T23:32:07;9.30;99.90
7498;DHT22;3790;48.806;9.140;2023-02-22T23:37:08;9.50;99.90
7498;DHT22;3790;48.806;9.140;2023-02-22T23:42:09;9.70;99.90
7498;DHT22;3790;48.806;9.140;2023-02-22T23:47:10;9.80;99.90
7498;DHT22;3790;48.806;9.140;2023-02-22T23:52:10;9.80;99.90
7498;DHT22;3790;48.806;9.140;2023-02-22T23:57:15;9.90;99.90
